sensor_id;sensor_type;location;lat;lon;timestamp;pressure;altitude;pressure_sealevel;temperature;humidity
70127;BME280;57491;42.694;23.314;2023-03-31T00:01:37;95083.94;;;12.31;42.99
70127;BME280;57491;42.694;23.314;2023-03-31T00:04:07;95096.31;;;12.29;43.00
70127;BME280;57491;42.694;23.314;2023-03-31T00:06:36;95093.94;;;12.28;43.77
70127;BME280;57491;42.694;23.314;2023-03-31T00:09:04;95090.44;;;12.21;43.98
70127;BME280;57491;42.694;23.314;2023-03-31T00:11:32;95081.59;;;12.15;43.84
70127;BME280;57491;42.694;23.314;2023-03-31T00:14:00;95075.16;;;12.11;43.19
70127;BME280;57491;42.694;23.314;2023-03-31T00:16:27;95078.66;;;12.25;44.90
70127;BME280;57491;42.694;23.314;2023-03-31T00:18:54;95074.81;;;12.21;43.36
70127;BME280;57491;42.694;23.314;2023-03-31T00:21:22;95074.25;;;12.25;44.33
70127;BME280;57491;42.694;23.314;2023-03-31T00:23:59;95081.25;;;12.25;43.63
70127;BME280;57491;42.694;23.314;2023-03-31T00:26:27;95084.50;;;12.27;44.78
70127;BME280;57491;42.694;23.314;2023-03-31T00:28:58;95053.03;;;12.07;43.36
70127;BME280;57491;42.694;23.314;2023-03-31T00:31:26;95082.63;;;12.21;44.75
70127;BME280;57491;42.694;23.314;2023-03-31T00:33:54;95076.19;;;12.17;43.83
70127;BME280;57491;42.694;23.314;2023-03-31T00:36:22;95081.03;;;12.20;44.58
70127;BME280;57491;42.694;23.314;2023-03-31T00:38:53;95068.19;;;12.18;44.99
70127;BME280;57491;42.694;23.314;2023-03-31T00:41:20;95078.03;;;12.23;44.42
70127;BME280;57491;42.694;23.314;2023-03-31T00:44:17;95074.63;;;12.22;43.49
70127;BME280;57491;42.694;23.314;2023-03-31T00:46:51;95068.44;;;12.23;43.74
70127;BME280;57491;42.694;23.314;2023-03-31T00:49:24;95064.38;;;12.21;43.75
70127;BME280;57491;42.694;23.314;2023-03-31T00:51:55;95057.19;;;12.23;44.31
70127;BME280;57491;42.694;23.314;2023-03-31T00:54:25;95066.88;;;12.29;44.57
70127;BME280;57491;42.694;23.314;2023-03-31T00:56:54;95052.22;;;12.28;44.68
70127;BME280;57491;42.694;23.314;2023-03-31T00:59:31;95035.34;;;12.24;43.53
70127;BME280;57491;42.694;23.314;2023-03-31T01:02:01;95043.81;;;12.32;44.42
70127;BME280;57491;42.694;23.314;2023-03-31T01:04:31;95035.03;;;12.33;43.53
70127;BME280;57491;42.694;23.314;2023-03-31T01:07:04;95027.53;;;12.24;42.48
70127;BME280;57491;42.694;23.314;2023-03-31T01:09:34;95045.63;;;12.32;43.35
70127;BME280;57491;42.694;23.314;2023-03-31T01:12:06;95050.22;;;12.30;43.83
70127;BME280;57491;42.694;23.314;2023-03-31T01:14:35;95045.63;;;12.32;43.19
70127;BME280;57491;42.694;23.314;2023-03-31T01:17:02;95040.41;;;12.32;42.27
70127;BME280;57491;42.694;23.314;2023-03-31T01:19:41;95041.47;;;12.37;42.81
70127;BME280;57491;42.694;23.314;2023-03-31T01:22:41;95049.69;;;12.41;43.71
70127;BME280;57491;42.694;23.314;2023-03-31T01:28:32;95038.47;;;12.40;43.71
70127;BME280;57491;42.694;23.314;2023-03-31T01:31:38;95045.88;;;12.37;44.83
70127;BME280;57491;42.694;23.314;2023-03-31T01:40:36;95058.66;;;12.32;45.28
70127;BME280;57491;42.694;23.314;2023-03-31T01:43:10;95063.00;;;12.25;44.13
70127;BME280;57491;42.694;23.314;2023-03-31T01:45:46;95069.28;;;12.30;44.98
70127;BME280;57491;42.694;23.314;2023-03-31T01:48:20;95062.22;;;12.24;43.95
70127;BME280;57491;42.694;23.314;2023-03-31T01:50:57;95062.66;;;12.28;45.26
70127;BME280;57491;42.694;23.314;2023-03-31T01:53:30;95074.63;;;12.22;43.59
70127;BME280;57491;42.694;23.314;2023-03-31T01:56:05;95075.38;;;12.16;44.17
70127;BME280;57491;42.694;23.314;2023-03-31T01:58:36;95074.03;;;12.20;44.66
70127;BME280;57491;42.694;23.314;2023-03-31T02:01:10;95083.81;;;12.18;44.58
70127;BME280;57491;42.694;23.314;2023-03-31T02:03:44;95079.31;;;12.05;44.33
70127;BME280;57491;42.694;23.314;2023-03-31T02:06:17;95077.13;;;12.09;45.05
70127;BME280;57491;42.694;23.314;2023-03-31T02:08:49;95080.53;;;12.10;44.00
70127;BME280;57491;42.694;23.314;2023-03-31T02:11:20;95082.59;;;12.14;44.42
70127;BME280;57491;42.694;23.314;2023-03-31T02:13:50;95081.78;;;12.14;43.89
70127;BME280;57491;42.694;23.314;2023-03-31T02:16:22;95086.25;;;12.20;44.38
70127;BME280;57491;42.694;23.314;2023-03-31T02:18:54;95090.59;;;12.13;44.17
70127;BME280;57491;42.694;23.314;2023-03-31T02:21:27;95096.78;;;12.12;45.12
70127;BME280;57491;42.694;23.314;2023-03-31T02:23:56;95103.38;;;12.07;45.82
70127;BME280;57491;42.694;23.314;2023-03-31T02:26:29;95099.53;;;12.03;47.85
70127;BME280;57491;42.694;23.314;2023-03-31T02:28:57;95118.66;;;12.11;47.73
70127;BME280;57491;42.694;23.314;2023-03-31T02:31:29;95121.47;;;11.94;47.29
70127;BME280;57491;42.694;23.314;2023-03-31T02:33:59;95123.66;;;11.91;51.57
70127;BME280;57491;42.694;23.314;2023-03-31T02:36:27;95124.78;;;11.82;51.52
70127;BME280;57491;42.694;23.314;2023-03-31T02:38:56;95119.50;;;11.75;50.23
70127;BME280;57491;42.694;23.314;2023-03-31T02:41:26;95132.53;;;11.75;52.81
70127;BME280;57491;42.694;23.314;2023-03-31T02:43:53;95121.47;;;11.73;54.36
70127;BME280;57491;42.694;23.314;2023-03-31T02:46:20;95117.34;;;11.64;52.61
70127;BME280;57491;42.694;23.314;2023-03-31T02:48:50;95127.03;;;11.70;53.76
70127;BME280;57491;42.694;23.314;2023-03-31T02:51:49;95103.19;;;11.52;55.12
70127;BME280;57491;42.694;23.314;2023-03-31T02:54:47;95112.13;;;11.64;54.85
70127;BME280;57491;42.694;23.314;2023-03-31T02:57:35;95103.91;;;11.60;54.99
70127;BME280;57491;42.694;23.314;2023-03-31T03:00:09;95102.44;;;11.58;53.91
70127;BME280;57491;42.694;23.314;2023-03-31T03:02:50;95088.06;;;11.62;56.28
70127;BME280;57491;42.694;23.314;2023-03-31T03:05:29;95067.34;;;11.54;54.42
70127;BME280;57491;42.694;23.314;2023-03-31T03:08:09;95081.19;;;11.54;56.58
70127;BME280;57491;42.694;23.314;2023-03-31T03:10:49;95074.94;;;11.70;55.96
70127;BME280;57491;42.694;23.314;2023-03-31T03:13:27;95078.06;;;11.80;54.58
70127;BME280;57491;42.694;23.314;2023-03-31T03:16:00;95068.38;;;11.95;55.52
70127;BME280;57491;42.694;23.314;2023-03-31T03:18:29;95054.97;;;11.98;54.61
70127;BME280;57491;42.694;23.314;2023-03-31T03:20:57;95068.50;;;12.08;54.44
70127;BME280;57491;42.694;23.314;2023-03-31T03:23:24;95057.34;;;12.15;53.74
70127;BME280;57491;42.694;23.314;2023-03-31T03:25:51;95046.84;;;12.08;55.00
70127;BME280;57491;42.694;23.314;2023-03-31T03:28:18;95064.91;;;12.10;54.40
70127;BME280;57491;42.694;23.314;2023-03-31T03:30:47;95055.28;;;12.10;54.34
70127;BME280;57491;42.694;23.314;2023-03-31T03:33:14;95051.47;;;12.06;54.83
70127;BME280;57491;42.694;23.314;2023-03-31T03:35:42;95048.03;;;12.05;54.49
70127;BME280;57491;42.694;23.314;2023-03-31T03:38:09;95048.84;;;12.06;54.63
70127;BME280;57491;42.694;23.314;2023-03-31T03:40:36;95044.25;;;12.08;55.54
70127;BME280;57491;42.694;23.314;2023-03-31T03:43:03;95037.19;;;12.02;52.98
70127;BME280;57491;42.694;23.314;2023-03-31T03:45:30;95027.34;;;11.76;54.25
70127;BME280;57491;42.694;23.314;2023-03-31T03:47:59;95031.97;;;11.59;54.75
70127;BME280;57491;42.694;23.314;2023-03-31T03:50:26;95035.97;;;11.62;55.16
70127;BME280;57491;42.694;23.314;2023-03-31T03:52:53;95027.19;;;11.63;54.73
70127;BME280;57491;42.694;23.314;2023-03-31T03:55:20;95030.03;;;11.68;55.90
70127;BME280;57491;42.694;23.314;2023-03-31T03:57:47;95040.41;;;11.61;54.59
70127;BME280;57491;42.694;23.314;2023-03-31T04:00:15;95035.69;;;11.50;55.12
70127;BME280;57491;42.694;23.314;2023-03-31T04:02:42;95042.25;;;11.46;55.29
70127;BME280;57491;42.694;23.314;2023-03-31T04:05:10;95051.47;;;11.49;55.44
70127;BME280;57491;42.694;23.314;2023-03-31T04:07:37;95052.16;;;11.57;55.41
70127;BME280;57491;42.694;23.314;2023-03-31T04:10:05;95052.78;;;11.59;54.91
70127;BME280;57491;42.694;23.314;2023-03-31T04:12:33;95050.06;;;11.68;54.89
70127;BME280;57491;42.694;23.314;2023-03-31T04:15:00;95048.03;;;11.63;54.62
70127;BME280;57491;42.694;23.314;2023-03-31T04:17:27;95056.88;;;11.69;54.59
70127;BME280;57491;42.694;23.314;2023-03-31T04:19:59;95057.34;;;11.72;54.84
70127;BME280;57491;42.694;23.314;2023-03-31T04:22:31;95053.25;;;11.84;54.86
70127;BME280;57491;42.694;23.314;2023-03-31T04:25:01;95050.53;;;11.92;55.35
70127;BME280;57491;42.694;23.314;2023-03-31T04:27:28;95047.94;;;11.92;54.53
70127;BME280;57491;42.694;23.314;2023-03-31T04:29:57;95053.56;;;11.96;54.53
70127;BME280;57491;42.694;23.314;2023-03-31T04:32:24;95052.63;;;12.03;55.17
70127;BME280;57491;42.694;23.314;2023-03-31T04:34:51;95050.44;;;12.07;54.76
70127;BME280;57491;42.694;23.314;2023-03-31T04:37:27;95050.50;;;12.14;55.20
70127;BME280;57491;42.694;23.314;2023-03-31T04:40:01;95044.91;;;12.17;53.65
70127;BME280;57491;42.694;23.314;2023-03-31T04:42:33;95043.06;;;12.11;53.34
70127;BME280;57491;42.694;23.314;2023-03-31T04:45:00;95042.44;;;12.08;53.55
70127;BME280;57491;42.694;23.314;2023-03-31T04:47:27;95039.66;;;12.10;53.79
70127;BME280;57491;42.694;23.314;2023-03-31T04:49:55;95039.91;;;12.15;53.28
70127;BME280;57491;42.694;23.314;2023-03-31T04:52:22;95034.69;;;12.15;53.45
70127;BME280;57491;42.694;23.314;2023-03-31T04:54:49;95037.97;;;12.24;54.66
70127;BME280;57491;42.694;23.314;2023-03-31T04:57:17;95027.94;;;12.27;54.67
70127;BME280;57491;42.694;23.314;2023-03-31T04:59:44;95028.59;;;12.36;54.35
70127;BME280;57491;42.694;23.314;2023-03-31T05:02:11;95022.59;;;12.35;53.67
70127;BME280;57491;42.694;23.314;2023-03-31T05:04:41;95026.25;;;12.47;53.11
70127;BME280;57491;42.694;23.314;2023-03-31T05:07:08;95019.91;;;12.57;53.11
70127;BME280;57491;42.694;23.314;2023-03-31T05:09:35;95015.13;;;12.60;52.73
70127;BME280;57491;42.694;23.314;2023-03-31T05:12:02;95019.78;;;12.71;52.63
70127;BME280;57491;42.694;23.314;2023-03-31T05:14:31;95013.00;;;12.77;52.08
70127;BME280;57491;42.694;23.314;2023-03-31T05:16:58;95006.00;;;12.84;51.88
70127;BME280;57491;42.694;23.314;2023-03-31T05:19:25;95002.78;;;12.88;51.40
70127;BME280;57491;42.694;23.314;2023-03-31T05:21:52;95018.09;;;12.91;52.31
70127;BME280;57491;42.694;23.314;2023-03-31T05:24:20;95007.38;;;12.73;53.23
70127;BME280;57491;42.694;23.314;2023-03-31T05:26:47;95012.34;;;12.68;54.86
70127;BME280;57491;42.694;23.314;2023-03-31T05:29:17;94993.03;;;12.56;54.08
70127;BME280;57491;42.694;23.314;2023-03-31T05:31:46;94998.16;;;12.43;54.55
70127;BME280;57491;42.694;23.314;2023-03-31T05:34:13;95013.44;;;12.46;54.62
70127;BME280;57491;42.694;23.314;2023-03-31T05:36:40;95009.84;;;12.53;55.21
70127;BME280;57491;42.694;23.314;2023-03-31T05:39:08;95002.03;;;12.53;53.96
70127;BME280;57491;42.694;23.314;2023-03-31T05:41:35;94999.31;;;12.68;54.79
70127;BME280;57491;42.694;23.314;2023-03-31T05:44:03;94993.69;;;12.71;54.49
70127;BME280;57491;42.694;23.314;2023-03-31T05:46:30;94998.38;;;12.82;53.79
70127;BME280;57491;42.694;23.314;2023-03-31T05:48:58;94993.78;;;12.91;54.04
70127;BME280;57491;42.694;23.314;2023-03-31T05:51:25;94996.03;;;13.01;53.99
70127;BME280;57491;42.694;23.314;2023-03-31T05:53:52;94996.84;;;13.01;53.56
70127;BME280;57491;42.694;23.314;2023-03-31T05:56:19;95003.31;;;13.12;54.21
70127;BME280;57491;42.694;23.314;2023-03-31T05:58:47;95002.59;;;13.31;53.91
70127;BME280;57491;42.694;23.314;2023-03-31T06:01:16;94999.38;;;13.42;52.42
70127;BME280;57491;42.694;23.314;2023-03-31T06:03:45;94996.81;;;13.55;53.14
70127;BME280;57491;42.694;23.314;2023-03-31T06:06:14;94984.34;;;13.51;52.28
70127;BME280;57491;42.694;23.314;2023-03-31T06:08:42;95007.47;;;13.67;52.39
70127;BME280;57491;42.694;23.314;2023-03-31T06:11:12;95009.28;;;13.66;52.20
70127;BME280;57491;42.694;23.314;2023-03-31T06:13:39;94976.09;;;13.47;51.76
70127;BME280;57491;42.694;23.314;2023-03-31T06:16:09;95011.47;;;13.56;51.17
70127;BME280;57491;42.694;23.314;2023-03-31T06:18:36;94999.81;;;13.52;52.67
70127;BME280;57491;42.694;23.314;2023-03-31T06:21:03;94994.81;;;13.57;51.62
70127;BME280;57491;42.694;23.314;2023-03-31T06:23:32;95006.47;;;13.74;51.09
70127;BME280;57491;42.694;23.314;2023-03-31T06:26:00;94990.22;;;13.85;51.17
70127;BME280;57491;42.694;23.314;2023-03-31T06:28:28;94996.22;;;14.06;50.99
70127;BME280;57491;42.694;23.314;2023-03-31T06:31:00;94996.66;;;14.36;49.83
70127;BME280;57491;42.694;23.314;2023-03-31T06:33:27;94999.84;;;14.38;48.92
70127;BME280;57491;42.694;23.314;2023-03-31T06:35:55;95002.22;;;14.65;48.60
70127;BME280;57491;42.694;23.314;2023-03-31T06:38:22;94997.25;;;14.95;47.24
70127;BME280;57491;42.694;23.314;2023-03-31T06:40:51;95000.44;;;15.17;46.81
70127;BME280;57491;42.694;23.314;2023-03-31T06:43:18;94984.19;;;15.40;44.68
70127;BME280;57491;42.694;23.314;2023-03-31T06:45:45;94994.22;;;15.81;41.13
70127;BME280;57491;42.694;23.314;2023-03-31T06:48:13;95009.53;;;16.08;39.46
70127;BME280;57491;42.694;23.314;2023-03-31T06:50:40;95005.47;;;16.37;38.74
70127;BME280;57491;42.694;23.314;2023-03-31T06:53:08;95003.34;;;16.46;39.09
70127;BME280;57491;42.694;23.314;2023-03-31T06:55:36;95005.25;;;16.57;39.07
70127;BME280;57491;42.694;23.314;2023-03-31T06:58:05;95002.97;;;16.67;38.52
70127;BME280;57491;42.694;23.314;2023-03-31T07:00:32;94997.41;;;16.75;38.21
70127;BME280;57491;42.694;23.314;2023-03-31T07:02:59;94990.44;;;16.87;37.01
70127;BME280;57491;42.694;23.314;2023-03-31T07:05:28;94977.59;;;16.61;36.71
70127;BME280;57491;42.694;23.314;2023-03-31T07:07:57;94974.50;;;16.46;37.17
70127;BME280;57491;42.694;23.314;2023-03-31T07:10:26;94959.69;;;16.33;37.46
70127;BME280;57491;42.694;23.314;2023-03-31T07:12:55;94956.59;;;16.61;37.25
70127;BME280;57491;42.694;23.314;2023-03-31T07:15:25;94951.41;;;16.91;38.37
70127;BME280;57491;42.694;23.314;2023-03-31T07:17:55;94940.47;;;17.24;37.01
70127;BME280;57491;42.694;23.314;2023-03-31T07:20:26;94937.41;;;17.27;36.54
70127;BME280;57491;42.694;23.314;2023-03-31T07:22:54;94937.66;;;17.37;36.56
70127;BME280;57491;42.694;23.314;2023-03-31T07:25:21;94932.91;;;17.46;36.44
70127;BME280;57491;42.694;23.314;2023-03-31T07:27:48;94946.34;;;17.67;36.10
70127;BME280;57491;42.694;23.314;2023-03-31T07:30:18;94941.25;;;17.96;35.77
70127;BME280;57491;42.694;23.314;2023-03-31T07:32:47;94935.38;;;17.70;35.96
70127;BME280;57491;42.694;23.314;2023-03-31T07:35:15;94944.41;;;17.63;36.06
70127;BME280;57491;42.694;23.314;2023-03-31T07:37:44;94941.09;;;17.67;36.36
70127;BME280;57491;42.694;23.314;2023-03-31T07:40:13;94938.16;;;17.99;35.95
70127;BME280;57491;42.694;23.314;2023-03-31T07:42:41;94940.78;;;17.99;35.15
70127;BME280;57491;42.694;23.314;2023-03-31T07:45:09;94938.25;;;17.92;34.85
70127;BME280;57491;42.694;23.314;2023-03-31T07:47:36;94938.28;;;18.04;35.27
70127;BME280;57491;42.694;23.314;2023-03-31T07:50:06;94937.72;;;18.25;35.15
70127;BME280;57491;42.694;23.314;2023-03-31T07:52:34;94939.41;;;18.43;34.79
70127;BME280;57491;42.694;23.314;2023-03-31T07:55:01;94932.78;;;18.63;34.60
70127;BME280;57491;42.694;23.314;2023-03-31T07:57:29;94950.16;;;19.16;34.69
70127;BME280;57491;42.694;23.314;2023-03-31T07:59:56;94945.81;;;19.22;32.84
70127;BME280;57491;42.694;23.314;2023-03-31T08:02:23;94928.50;;;19.14;33.05
70127;BME280;57491;42.694;23.314;2023-03-31T08:04:51;94926.81;;;19.48;33.08
70127;BME280;57491;42.694;23.314;2023-03-31T08:07:19;94928.09;;;19.79;32.15
70127;BME280;57491;42.694;23.314;2023-03-31T08:09:46;94927.59;;;19.37;31.65
70127;BME280;57491;42.694;23.314;2023-03-31T08:12:13;94912.09;;;18.95;32.74
70127;BME280;57491;42.694;23.314;2023-03-31T08:14:41;94909.63;;;18.77;33.37
70127;BME280;57491;42.694;23.314;2023-03-31T08:17:08;94914.94;;;18.54;33.47
70127;BME280;57491;42.694;23.314;2023-03-31T08:19:36;94917.44;;;18.60;33.40
70127;BME280;57491;42.694;23.314;2023-03-31T08:22:03;94910.81;;;18.58;33.53
70127;BME280;57491;42.694;23.314;2023-03-31T08:24:32;94917.78;;;18.52;33.74
70127;BME280;57491;42.694;23.314;2023-03-31T08:26:59;94921.56;;;18.68;33.77
70127;BME280;57491;42.694;23.314;2023-03-31T08:29:26;94916.50;;;19.06;33.14
70127;BME280;57491;42.694;23.314;2023-03-31T08:31:53;94894.47;;;19.41;32.25
70127;BME280;57491;42.694;23.314;2023-03-31T08:34:20;94914.50;;;19.87;31.99
70127;BME280;57491;42.694;23.314;2023-03-31T08:36:47;94906.75;;;20.14;31.51
70127;BME280;57491;42.694;23.314;2023-03-31T08:39:15;94900.66;;;20.13;30.86
70127;BME280;57491;42.694;23.314;2023-03-31T08:41:50;94909.00;;;20.82;30.93
70127;BME280;57491;42.694;23.314;2023-03-31T08:44:22;94910.41;;;21.11;29.50
70127;BME280;57491;42.694;23.314;2023-03-31T08:46:54;94905.81;;;21.02;29.51
70127;BME280;57491;42.694;23.314;2023-03-31T08:49:23;94907.91;;;20.56;30.07
70127;BME280;57491;42.694;23.314;2023-03-31T08:51:54;94890.56;;;20.43;31.25
70127;BME280;57491;42.694;23.314;2023-03-31T08:54:29;94898.06;;;20.73;30.55
70127;BME280;57491;42.694;23.314;2023-03-31T08:56:58;94890.84;;;21.12;30.27
70127;BME280;57491;42.694;23.314;2023-03-31T08:59:28;94881.19;;;21.50;29.28
70127;BME280;57491;42.694;23.314;2023-03-31T09:02:00;94880.25;;;21.61;28.28
70127;BME280;57491;42.694;23.314;2023-03-31T09:04:47;94876.31;;;21.36;28.40
70127;BME280;57491;42.694;23.314;2023-03-31T09:07:24;94853.94;;;21.49;28.67
70127;BME280;57491;42.694;23.314;2023-03-31T09:10:01;94869.03;;;21.49;28.93
70127;BME280;57491;42.694;23.314;2023-03-31T09:12:39;94863.31;;;21.62;28.70
70127;BME280;57491;42.694;23.314;2023-03-31T09:15:13;94874.22;;;21.70;28.16
70127;BME280;57491;42.694;23.314;2023-03-31T09:17:47;94860.59;;;21.52;28.41
70127;BME280;57491;42.694;23.314;2023-03-31T09:20:17;94861.84;;;21.44;28.05
70127;BME280;57491;42.694;23.314;2023-03-31T09:22:49;94866.00;;;21.67;28.14
70127;BME280;57491;42.694;23.314;2023-03-31T09:25:20;94866.03;;;21.13;28.40
70127;BME280;57491;42.694;23.314;2023-03-31T09:27:52;94846.72;;;21.13;29.24
70127;BME280;57491;42.694;23.314;2023-03-31T09:30:24;94857.47;;;21.28;28.59
70127;BME280;57491;42.694;23.314;2023-03-31T09:32:57;94866.59;;;21.42;28.60
70127;BME280;57491;42.694;23.314;2023-03-31T09:35:30;94862.88;;;21.38;28.77
70127;BME280;57491;42.694;23.314;2023-03-31T09:37:58;94860.69;;;21.35;28.15
70127;BME280;57491;42.694;23.314;2023-03-31T09:40:26;94860.69;;;21.35;28.81
70127;BME280;57491;42.694;23.314;2023-03-31T09:42:57;94856.94;;;21.04;28.46
70127;BME280;57491;42.694;23.314;2023-03-31T09:45:25;94852.75;;;21.35;28.25
70127;BME280;57491;42.694;23.314;2023-03-31T09:47:53;94844.50;;;21.26;28.90
70127;BME280;57491;42.694;23.314;2023-03-31T09:50:20;94849.31;;;21.66;28.16
70127;BME280;57491;42.694;23.314;2023-03-31T09:52:51;94850.25;;;22.19;27.14
70127;BME280;57491;42.694;23.314;2023-03-31T09:55:20;94843.28;;;22.55;26.62
70127;BME280;57491;42.694;23.314;2023-03-31T09:57:48;94836.91;;;22.51;26.64
70127;BME280;57491;42.694;23.314;2023-03-31T10:00:18;94840.06;;;22.48;27.81
70127;BME280;57491;42.694;23.314;2023-03-31T10:02:48;94843.13;;;22.19;26.70
70127;BME280;57491;42.694;23.314;2023-03-31T10:05:26;94827.72;;;22.16;26.85
70127;BME280;57491;42.694;23.314;2023-03-31T10:08:17;94836.25;;;22.23;27.17
70127;BME280;57491;42.694;23.314;2023-03-31T10:10:47;94813.34;;;22.02;27.32
70127;BME280;57491;42.694;23.314;2023-03-31T10:13:16;94816.38;;;21.79;27.15
70127;BME280;57491;42.694;23.314;2023-03-31T10:15:51;94817.44;;;22.25;27.45
70127;BME280;57491;42.694;23.314;2023-03-31T10:18:20;94807.00;;;22.60;25.92
70127;BME280;57491;42.694;23.314;2023-03-31T10:20:57;94817.22;;;22.94;26.12
70127;BME280;57491;42.694;23.314;2023-03-31T10:23:28;94806.06;;;22.87;26.82
70127;BME280;57491;42.694;23.314;2023-03-31T10:25:57;94807.47;;;22.42;26.09
70127;BME280;57491;42.694;23.314;2023-03-31T10:28:25;94815.84;;;22.19;26.93
70127;BME280;57491;42.694;23.314;2023-03-31T10:30:55;94803.81;;;22.01;27.15
70127;BME280;57491;42.694;23.314;2023-03-31T10:33:27;94805.25;;;21.82;27.52
70127;BME280;57491;42.694;23.314;2023-03-31T10:35:55;94800.19;;;21.75;27.82
70127;BME280;57491;42.694;23.314;2023-03-31T10:38:28;94793.81;;;21.71;27.31
70127;BME280;57491;42.694;23.314;2023-03-31T10:40:57;94785.56;;;21.31;28.80
70127;BME280;57491;42.694;23.314;2023-03-31T10:43:26;94773.78;;;20.90;29.57
70127;BME280;57491;42.694;23.314;2023-03-31T10:45:56;94787.56;;;20.65;30.46
70127;BME280;57491;42.694;23.314;2023-03-31T10:48:26;94784.72;;;20.72;30.47
70127;BME280;57491;42.694;23.314;2023-03-31T10:50:54;94779.22;;;21.05;30.85
70127;BME280;57491;42.694;23.314;2023-03-31T10:53:24;94768.00;;;21.15;29.91
70127;BME280;57491;42.694;23.314;2023-03-31T10:55:58;94778.44;;;21.05;30.09
70127;BME280;57491;42.694;23.314;2023-03-31T10:58:38;94774.25;;;20.82;30.23
70127;BME280;57491;42.694;23.314;2023-03-31T11:01:20;94767.13;;;20.82;31.70
70127;BME280;57491;42.694;23.314;2023-03-31T11:04:07;94769.06;;;20.92;29.99
70127;BME280;57491;42.694;23.314;2023-03-31T11:06:46;94775.84;;;20.56;30.65
70127;BME280;57491;42.694;23.314;2023-03-31T11:09:28;94761.88;;;20.61;30.91
70127;BME280;57491;42.694;23.314;2023-03-31T11:12:01;94756.91;;;20.64;30.60
70127;BME280;57491;42.694;23.314;2023-03-31T11:14:39;94756.38;;;20.62;30.34
70127;BME280;57491;42.694;23.314;2023-03-31T11:17:22;94753.28;;;20.70;30.21
70127;BME280;57491;42.694;23.314;2023-03-31T11:19:58;94749.31;;;20.73;29.65
70127;BME280;57491;42.694;23.314;2023-03-31T11:22:38;94760.44;;;21.02;29.77
70127;BME280;57491;42.694;23.314;2023-03-31T11:25:22;94741.44;;;21.05;29.40
70127;BME280;57491;42.694;23.314;2023-03-31T11:31:05;94730.50;;;22.07;28.75
70127;BME280;57491;42.694;23.314;2023-03-31T11:33:56;94724.63;;;22.67;27.10
70127;BME280;57491;42.694;23.314;2023-03-31T11:36:37;94729.69;;;22.79;26.75
70127;BME280;57491;42.694;23.314;2023-03-31T11:39:20;94732.50;;;22.37;26.84
70127;BME280;57491;42.694;23.314;2023-03-31T11:41:53;94734.03;;;22.22;27.36
70127;BME280;57491;42.694;23.314;2023-03-31T11:44:24;94716.09;;;21.83;28.64
70127;BME280;57491;42.694;23.314;2023-03-31T11:46:55;94725.56;;;22.31;27.34
70127;BME280;57491;42.694;23.314;2023-03-31T11:49:27;94718.78;;;22.55;27.19
70127;BME280;57491;42.694;23.314;2023-03-31T11:51:58;94717.53;;;22.83;27.83
70127;BME280;57491;42.694;23.314;2023-03-31T11:54:32;94711.38;;;22.67;27.00
70127;BME280;57491;42.694;23.314;2023-03-31T11:57:03;94702.09;;;22.59;27.03
70127;BME280;57491;42.694;23.314;2023-03-31T11:59:33;94688.56;;;22.61;26.73
70127;BME280;57491;42.694;23.314;2023-03-31T12:02:03;94694.19;;;22.90;26.54
70127;BME280;57491;42.694;23.314;2023-03-31T12:04:38;94693.63;;;23.43;27.87
70127;BME280;57491;42.694;23.314;2023-03-31T12:07:20;94690.81;;;24.09;25.06
70127;BME280;57491;42.694;23.314;2023-03-31T12:09:54;94682.94;;;23.94;24.96
70127;BME280;57491;42.694;23.314;2023-03-31T12:12:29;94674.81;;;24.34;24.73
70127;BME280;57491;42.694;23.314;2023-03-31T12:15:05;94680.44;;;25.11;24.05
70127;BME280;57491;42.694;23.314;2023-03-31T12:17:37;94670.94;;;25.86;22.83
70127;BME280;57491;42.694;23.314;2023-03-31T12:20:13;94680.81;;;26.33;23.31
70127;BME280;57491;42.694;23.314;2023-03-31T12:22:44;94669.78;;;26.58;21.85
70127;BME280;57491;42.694;23.314;2023-03-31T12:25:14;94673.94;;;26.03;22.52
70127;BME280;57491;42.694;23.314;2023-03-31T12:27:43;94664.09;;;25.56;23.34
70127;BME280;57491;42.694;23.314;2023-03-31T12:30:14;94659.31;;;25.24;22.84
70127;BME280;57491;42.694;23.314;2023-03-31T12:32:46;94658.69;;;24.65;24.06
70127;BME280;57491;42.694;23.314;2023-03-31T12:35:21;94656.44;;;24.38;24.41
70127;BME280;57491;42.694;23.314;2023-03-31T12:38:07;94658.22;;;23.98;24.91
70127;BME280;57491;42.694;23.314;2023-03-31T12:40:43;94653.72;;;25.79;24.27
70127;BME280;57491;42.694;23.314;2023-03-31T12:43:32;94646.38;;;27.39;20.89
70127;BME280;57491;42.694;23.314;2023-03-31T12:46:15;94640.28;;;28.34;20.76
70127;BME280;57491;42.694;23.314;2023-03-31T12:48:57;94627.19;;;29.26;19.09
70127;BME280;57491;42.694;23.314;2023-03-31T12:51:45;94621.06;;;29.04;19.27
70127;BME280;57491;42.694;23.314;2023-03-31T12:54:23;94621.69;;;28.65;20.38
70127;BME280;57491;42.694;23.314;2023-03-31T12:57:13;94621.72;;;27.61;20.94
70127;BME280;57491;42.694;23.314;2023-03-31T12:59:42;94616.22;;;26.17;22.07
70127;BME280;57491;42.694;23.314;2023-03-31T13:02:23;94611.31;;;25.35;23.20
70127;BME280;57491;42.694;23.314;2023-03-31T13:04:51;94603.38;;;24.67;23.81
70127;BME280;57491;42.694;23.314;2023-03-31T13:07:40;94588.63;;;24.01;24.78
70127;BME280;57491;42.694;23.314;2023-03-31T13:10:28;94592.34;;;24.00;25.02
70127;BME280;57491;42.694;23.314;2023-03-31T13:13:03;94578.56;;;23.98;25.58
70127;BME280;57491;42.694;23.314;2023-03-31T13:15:31;94568.31;;;23.77;25.51
70127;BME280;57491;42.694;23.314;2023-03-31T13:18:00;94568.44;;;23.41;26.16
70127;BME280;57491;42.694;23.314;2023-03-31T13:20:35;94554.88;;;23.43;26.18
70127;BME280;57491;42.694;23.314;2023-03-31T13:23:08;94544.59;;;23.26;26.08
70127;BME280;57491;42.694;23.314;2023-03-31T13:25:41;94538.28;;;23.02;26.53